createdAt,value
2022-07-31T00:00:21.293Z,21.86
2022-07-31T00:02:48.271Z,21.80
2022-07-31T00:05:14.995Z,21.83
2022-07-31T00:07:41.763Z,21.79
2022-07-31T00:10:09.284Z,21.78
2022-07-31T00:12:36.031Z,21.77
2022-07-31T00:15:08.334Z,21.70
2022-07-31T00:17:35.261Z,21.71
2022-07-31T00:20:02.310Z,21.70
2022-07-31T00:22:28.967Z,21.64
2022-07-31T00:24:56.971Z,21.63
2022-07-31T00:27:23.875Z,21.65
2022-07-31T00:29:50.956Z,21.65
2022-07-31T00:32:17.995Z,21.61
2022-07-31T00:34:44.745Z,21.54
2022-07-31T00:37:11.417Z,21.58
2022-07-31T00:39:38.417Z,21.59
2022-07-31T00:42:05.948Z,21.52
2022-07-31T00:44:32.697Z,21.54
2022-07-31T00:47:01.729Z,21.53
2022-07-31T00:49:37.707Z,21.51
2022-07-31T00:52:05.713Z,21.49
2022-07-31T00:54:33.407Z,21.48
2022-07-31T00:57:00.768Z,21.44
2022-07-31T00:59:29.116Z,21.43
2022-07-31T01:01:57.362Z,21.35
2022-07-31T01:04:26.202Z,21.38
2022-07-31T01:06:54.851Z,21.35
2022-07-31T01:09:22.086Z,21.30
2022-07-31T01:12:00.630Z,21.21
2022-07-31T01:14:31.262Z,21.21
2022-07-31T01:17:00.161Z,21.14
2022-07-31T01:19:43.151Z,21.07
2022-07-31T01:22:48.131Z,21.02
2022-07-31T01:25:34.515Z,20.96
2022-07-31T01:28:12.049Z,20.87
2022-07-31T01:31:24.212Z,20.80
2022-07-31T01:33:53.708Z,20.70
2022-07-31T01:36:24.745Z,20.66
2022-07-31T01:38:55.884Z,20.66
2022-07-31T01:41:30.354Z,20.55
2022-07-31T01:43:59.027Z,20.59
2022-07-31T01:46:28.890Z,20.53
2022-07-31T01:48:57.326Z,20.50
2022-07-31T01:51:26.378Z,20.45
2022-07-31T01:53:54.394Z,20.48
2022-07-31T01:56:22.164Z,20.41
2022-07-31T01:58:49.985Z,20.41
2022-07-31T02:01:19.209Z,20.40
2022-07-31T02:03:51.445Z,20.39
2022-07-31T02:06:24.725Z,20.35
2022-07-31T02:08:54.454Z,20.33
2022-07-31T02:11:22.000Z,20.29
2022-07-31T02:13:49.877Z,20.22
2022-07-31T02:16:19.433Z,20.15
2022-07-31T02:18:49.553Z,20.13
2022-07-31T02:21:18.904Z,20.11
2022-07-31T02:23:45.692Z,20.15
2022-07-31T02:26:15.583Z,20.11
2022-07-31T02:28:44.562Z,20.10
2022-07-31T02:31:13.698Z,20.04
2022-07-31T02:33:45.754Z,20.05
2022-07-31T02:36:14.395Z,20.00
2022-07-31T02:38:43.811Z,20.03
2022-07-31T02:41:13.032Z,20.06
2022-07-31T02:43:40.790Z,20.13
2022-07-31T02:46:11.273Z,20.12
2022-07-31T02:48:39.527Z,20.24
2022-07-31T02:51:08.541Z,20.16
2022-07-31T02:53:37.868Z,20.21
2022-07-31T02:56:09.430Z,20.24
2022-07-31T02:58:43.471Z,20.37
2022-07-31T03:01:11.698Z,20.42
2022-07-31T03:03:38.885Z,20.42
2022-07-31T03:06:05.654Z,20.40
2022-07-31T03:08:32.457Z,20.40
2022-07-31T03:11:02.529Z,20.39
2022-07-31T03:13:31.975Z,20.46
2022-07-31T03:15:59.854Z,20.52
2022-07-31T03:18:29.461Z,20.56
2022-07-31T03:20:56.859Z,20.60
2022-07-31T03:23:27.359Z,20.65
2022-07-31T03:25:54.673Z,20.71
2022-07-31T03:28:22.050Z,20.80
2022-07-31T03:30:56.092Z,20.82
2022-07-31T03:33:23.966Z,20.96
2022-07-31T03:35:51.415Z,21.07
2022-07-31T03:38:38.487Z,21.25
2022-07-31T03:41:05.480Z,21.55
2022-07-31T03:43:44.183Z,21.85
2022-07-31T03:46:20.197Z,22.10
2022-07-31T03:48:47.917Z,22.52
2022-07-31T03:51:15.877Z,22.70
2022-07-31T03:53:43.552Z,23.03
2022-07-31T03:56:13.038Z,23.33
2022-07-31T03:58:40.322Z,23.73
2022-07-31T04:01:10.659Z,24.16
2022-07-31T04:03:39.610Z,24.63
2022-07-31T04:06:07.729Z,25.04
2022-07-31T04:08:34.505Z,25.35
2022-07-31T04:11:01.485Z,25.59
2022-07-31T04:13:29.311Z,25.69
2022-07-31T04:15:56.349Z,25.70
2022-07-31T04:18:23.282Z,25.62
2022-07-31T04:20:50.153Z,25.43
2022-07-31T04:23:16.958Z,25.28
2022-07-31T04:25:45.939Z,25.15
2022-07-31T04:28:13.750Z,25.03
2022-07-31T04:30:40.917Z,24.71
2022-07-31T04:33:07.909Z,24.35
2022-07-31T04:35:35.934Z,23.96
2022-07-31T04:38:02.808Z,23.68
2022-07-31T04:40:30.829Z,23.41
2022-07-31T04:42:57.687Z,23.17
2022-07-31T04:45:24.410Z,22.96
2022-07-31T04:47:52.698Z,22.81
2022-07-31T04:50:19.497Z,22.82
2022-07-31T04:52:54.821Z,22.81
2022-07-31T04:55:22.833Z,22.71
2022-07-31T04:57:49.587Z,22.76
2022-07-31T05:00:16.643Z,22.76
2022-07-31T05:02:43.751Z,22.67
2022-07-31T05:05:10.411Z,22.75
2022-07-31T05:07:37.981Z,22.79
2022-07-31T05:10:05.897Z,22.83
2022-07-31T05:12:33.011Z,22.88
2022-07-31T05:14:59.991Z,22.87
2022-07-31T05:17:27.076Z,22.98
2022-07-31T05:19:59.363Z,23.03
2022-07-31T05:22:27.163Z,23.12
2022-07-31T05:24:54.607Z,23.15
2022-07-31T05:27:21.768Z,23.17
2022-07-31T05:29:48.781Z,23.29
2022-07-31T05:32:16.144Z,23.41
2022-07-31T05:34:45.021Z,23.48
2022-07-31T05:37:12.035Z,23.54
2022-07-31T05:39:39.728Z,23.65
2022-07-31T05:42:24.436Z,23.68
2022-07-31T05:44:51.499Z,23.68
2022-07-31T05:47:18.493Z,23.67
2022-07-31T05:49:45.143Z,23.69
2022-07-31T05:52:12.050Z,23.67
2022-07-31T05:54:38.973Z,23.79
2022-07-31T05:57:07.664Z,23.84
2022-07-31T05:59:35.528Z,23.95
2022-07-31T06:02:03.505Z,24.01
2022-07-31T06:04:32.495Z,24.04
2022-07-31T06:06:59.372Z,24.05
2022-07-31T06:09:26.574Z,24.11
2022-07-31T06:11:53.609Z,24.20
2022-07-31T06:14:20.359Z,24.30
2022-07-31T06:16:50.232Z,24.35
2022-07-31T06:19:18.565Z,24.41
2022-07-31T06:21:51.616Z,24.52
2022-07-31T06:24:21.749Z,24.69
2022-07-31T06:26:48.904Z,24.77
2022-07-31T06:29:15.767Z,24.70
2022-07-31T06:31:42.758Z,24.84
2022-07-31T06:34:09.389Z,24.84
2022-07-31T06:36:37.219Z,24.79
2022-07-31T06:39:06.224Z,24.70
2022-07-31T06:41:47.481Z,24.69
2022-07-31T06:44:28.181Z,24.72
2022-07-31T06:47:02.431Z,24.73
2022-07-31T06:49:32.267Z,24.81
2022-07-31T06:51:59.103Z,24.90
2022-07-31T06:54:26.590Z,24.86
2022-07-31T06:56:54.645Z,24.88
2022-07-31T06:59:39.875Z,24.99
2022-07-31T07:02:08.690Z,25.04
2022-07-31T07:05:04.507Z,25.04
2022-07-31T07:07:22.734Z,25.11
2022-07-31T07:09:51.369Z,25.21
2022-07-31T07:12:19.399Z,25.26
2022-07-31T07:14:49.372Z,25.30
2022-07-31T07:17:16.747Z,25.26
2022-07-31T07:19:43.534Z,25.26
2022-07-31T07:22:10.587Z,25.28
2022-07-31T07:24:37.830Z,25.36
2022-07-31T07:27:05.000Z,25.44
2022-07-31T07:29:32.163Z,25.53
2022-07-31T07:31:59.957Z,25.53
2022-07-31T07:34:28.013Z,25.67
2022-07-31T07:36:55.448Z,25.67
2022-07-31T07:39:23.062Z,25.70
2022-07-31T07:41:50.339Z,25.76
2022-07-31T07:44:17.363Z,25.75
2022-07-31T07:46:44.221Z,25.87
2022-07-31T07:49:11.235Z,25.84
2022-07-31T07:51:38.549Z,25.93
2022-07-31T07:54:26.431Z,25.97
2022-07-31T07:56:57.603Z,26.05
2022-07-31T07:59:26.763Z,26.14
2022-07-31T08:01:56.678Z,26.18
2022-07-31T08:04:24.096Z,26.03
2022-07-31T08:06:50.851Z,25.99
2022-07-31T08:09:20.655Z,26.00
2022-07-31T08:11:50.108Z,26.03
2022-07-31T08:14:18.122Z,26.12
2022-07-31T08:16:48.365Z,26.11
2022-07-31T08:19:15.449Z,26.13
2022-07-31T08:21:42.141Z,26.13
2022-07-31T08:24:09.009Z,26.29
2022-07-31T08:26:54.485Z,26.43
2022-07-31T08:29:27.533Z,26.55
2022-07-31T08:31:58.203Z,26.63
2022-07-31T08:34:31.981Z,26.63
2022-07-31T08:37:00.071Z,26.75
2022-07-31T08:39:48.852Z,26.81
2022-07-31T08:42:16.337Z,26.74
2022-07-31T08:44:44.713Z,26.82
2022-07-31T08:47:16.090Z,26.84
2022-07-31T08:49:46.638Z,26.90
2022-07-31T08:52:24.928Z,26.92
2022-07-31T08:54:54.852Z,26.93
2022-07-31T08:57:22.919Z,26.99
2022-07-31T08:59:52.479Z,26.96
2022-07-31T09:02:19.603Z,26.97
2022-07-31T09:04:52.780Z,27.04
2022-07-31T09:07:20.729Z,27.09
2022-07-31T09:09:51.855Z,27.16
2022-07-31T09:12:32.318Z,27.14
2022-07-31T09:15:01.799Z,27.15
2022-07-31T09:17:34.325Z,27.08
2022-07-31T09:20:01.868Z,26.96
2022-07-31T09:22:30.570Z,26.98
2022-07-31T09:25:12.207Z,26.97
2022-07-31T09:27:40.378Z,26.97
2022-07-31T09:30:08.614Z,27.05
2022-07-31T09:32:50.630Z,27.10
2022-07-31T09:35:18.078Z,27.23
2022-07-31T09:37:48.826Z,27.28
2022-07-31T09:40:21.116Z,27.32
2022-07-31T09:42:55.340Z,27.36
2022-07-31T09:45:24.278Z,27.34
2022-07-31T09:48:08.599Z,27.43
2022-07-31T09:50:52.808Z,27.44
2022-07-31T09:53:19.956Z,27.40
2022-07-31T09:55:55.530Z,27.34
2022-07-31T09:58:24.553Z,27.30
2022-07-31T10:00:53.247Z,27.32
2022-07-31T10:03:20.816Z,27.29
2022-07-31T10:05:48.989Z,27.27
2022-07-31T10:08:17.369Z,27.32
2022-07-31T10:10:46.632Z,27.34
2022-07-31T10:13:16.371Z,27.34
2022-07-31T10:15:46.945Z,27.29
2022-07-31T10:18:35.628Z,27.34
2022-07-31T10:21:06.769Z,27.31
2022-07-31T10:23:40.307Z,27.31
2022-07-31T10:26:07.730Z,27.43
2022-07-31T10:28:37.848Z,27.36
2022-07-31T10:31:06.157Z,27.47
2022-07-31T10:33:49.271Z,27.46
2022-07-31T10:36:22.789Z,27.57
2022-07-31T10:39:02.931Z,27.65
2022-07-31T10:41:57.726Z,27.67
2022-07-31T10:44:27.487Z,27.72
2022-07-31T10:46:56.223Z,27.74
2022-07-31T10:49:44.665Z,27.74
2022-07-31T10:52:12.780Z,27.79
2022-07-31T10:54:44.968Z,27.80
2022-07-31T10:57:30.578Z,27.87
2022-07-31T11:00:17.587Z,27.83
2022-07-31T11:02:46.499Z,27.86
2022-07-31T11:05:16.147Z,27.85
2022-07-31T11:07:46.451Z,27.91
2022-07-31T11:10:16.588Z,27.91
2022-07-31T11:13:12.980Z,27.93
2022-07-31T11:15:40.121Z,27.97
2022-07-31T11:18:22.699Z,27.97
2022-07-31T11:21:22.803Z,27.97
2022-07-31T11:23:56.063Z,27.94
2022-07-31T11:26:32.734Z,27.98
2022-07-31T11:29:59.630Z,27.93
2022-07-31T11:31:50.000Z,27.98
2022-07-31T11:34:17.040Z,27.96
2022-07-31T11:36:48.014Z,28.00
2022-07-31T11:39:17.866Z,27.92
2022-07-31T11:41:45.726Z,27.96
2022-07-31T11:44:12.548Z,28.01
2022-07-31T11:46:39.491Z,28.06
2022-07-31T11:49:06.583Z,28.03
2022-07-31T11:51:33.405Z,27.96
2022-07-31T11:54:00.426Z,27.94
2022-07-31T11:56:27.843Z,28.06
2022-07-31T11:58:57.446Z,28.07
2022-07-31T12:01:29.638Z,28.03
2022-07-31T12:04:08.387Z,27.99
2022-07-31T12:06:37.302Z,27.96
2022-07-31T12:09:04.733Z,27.98
2022-07-31T12:11:31.705Z,27.89
2022-07-31T12:13:59.503Z,27.94
2022-07-31T12:16:26.753Z,27.94
2022-07-31T12:18:56.467Z,27.86
2022-07-31T12:21:34.351Z,27.97
2022-07-31T12:24:02.655Z,28.02
2022-07-31T12:26:31.866Z,28.02
2022-07-31T12:29:02.925Z,28.10
2022-07-31T12:31:32.529Z,28.14
2022-07-31T12:33:59.443Z,28.07
2022-07-31T12:36:26.102Z,28.12
2022-07-31T12:39:05.037Z,28.14
2022-07-31T12:41:42.220Z,28.20
2022-07-31T12:44:14.679Z,28.22
2022-07-31T12:46:41.720Z,28.17
2022-07-31T12:49:08.942Z,28.12
2022-07-31T12:51:45.605Z,28.10
2022-07-31T12:54:17.894Z,28.10
2022-07-31T12:56:46.531Z,28.12
2022-07-31T12:59:13.714Z,28.16
2022-07-31T13:01:40.520Z,28.17
2022-07-31T13:04:18.206Z,28.14
2022-07-31T13:06:48.585Z,28.22
2022-07-31T13:09:16.119Z,28.21
2022-07-31T13:11:46.373Z,28.24
2022-07-31T13:14:19.299Z,28.20
2022-07-31T13:16:46.958Z,28.20
2022-07-31T13:19:14.281Z,28.16
2022-07-31T13:21:48.953Z,28.14
2022-07-31T13:24:19.178Z,28.17
2022-07-31T13:26:47.652Z,28.17
2022-07-31T13:29:14.575Z,28.15
2022-07-31T13:31:41.809Z,28.16
2022-07-31T13:34:08.958Z,28.17
2022-07-31T13:36:38.971Z,28.20
2022-07-31T13:39:11.205Z,28.21
2022-07-31T13:41:39.523Z,28.18
2022-07-31T13:44:07.230Z,28.20
2022-07-31T13:46:34.096Z,28.13
2022-07-31T13:49:02.450Z,28.16
2022-07-31T13:51:29.766Z,28.16
2022-07-31T13:53:56.811Z,28.09
2022-07-31T13:56:38.913Z,28.14
2022-07-31T13:59:11.843Z,28.12
2022-07-31T14:02:04.203Z,28.14
2022-07-31T14:04:31.292Z,28.12
2022-07-31T14:07:01.352Z,28.05
2022-07-31T14:09:34.241Z,28.12
2022-07-31T14:12:04.656Z,28.11
2022-07-31T14:14:32.503Z,28.08
2022-07-31T14:16:59.210Z,28.07
2022-07-31T14:19:25.999Z,28.03
2022-07-31T14:21:56.854Z,28.02
2022-07-31T14:24:25.578Z,28.02
2022-07-31T14:26:52.581Z,28.03
2022-07-31T14:29:19.667Z,28.03
2022-07-31T14:31:46.496Z,28.02
2022-07-31T14:34:13.397Z,27.98
2022-07-31T14:36:40.310Z,27.96
2022-07-31T14:39:07.014Z,27.85
2022-07-31T14:41:33.734Z,27.88
2022-07-31T14:44:00.726Z,27.81
2022-07-31T14:46:27.473Z,27.87
2022-07-31T14:48:54.251Z,27.81
2022-07-31T14:51:21.381Z,27.79
2022-07-31T14:53:48.096Z,27.83
2022-07-31T14:56:23.418Z,27.78
2022-07-31T14:59:01.577Z,27.81
2022-07-31T15:01:30.616Z,27.73
2022-07-31T15:03:58.422Z,27.78
2022-07-31T15:06:39.798Z,27.81
2022-07-31T15:09:16.349Z,27.77
2022-07-31T15:11:59.593Z,27.69
2022-07-31T15:14:27.639Z,27.70
2022-07-31T15:16:54.635Z,27.67
2022-07-31T15:19:21.272Z,27.61
2022-07-31T15:22:10.748Z,27.63
2022-07-31T15:24:35.046Z,27.56
2022-07-31T15:27:02.199Z,27.60
2022-07-31T15:30:00.650Z,27.53
2022-07-31T15:32:16.046Z,27.50
2022-07-31T15:34:42.807Z,27.53
2022-07-31T15:37:09.680Z,27.50
2022-07-31T15:39:37.239Z,27.48
2022-07-31T15:42:04.262Z,27.46
2022-07-31T15:44:31.569Z,27.44
2022-07-31T15:46:58.591Z,27.37
2022-07-31T15:49:25.341Z,27.38
2022-07-31T15:51:52.174Z,27.36
2022-07-31T15:54:19.113Z,27.31
2022-07-31T15:56:47.126Z,27.30
2022-07-31T15:59:13.933Z,27.23
2022-07-31T16:01:41.016Z,27.23
2022-07-31T16:04:16.339Z,27.20
2022-07-31T16:06:48.859Z,27.16
2022-07-31T16:09:16.342Z,27.08
2022-07-31T16:12:05.503Z,27.11
2022-07-31T16:14:31.057Z,27.06
2022-07-31T16:16:57.704Z,26.97
2022-07-31T16:19:27.511Z,26.93
2022-07-31T16:21:58.064Z,26.97
2022-07-31T16:24:24.797Z,26.91
2022-07-31T16:26:51.723Z,26.92
2022-07-31T16:29:57.742Z,26.88
2022-07-31T16:32:05.795Z,26.84
2022-07-31T16:34:32.778Z,26.81
2022-07-31T16:36:59.535Z,26.78
2022-07-31T16:39:26.303Z,26.75
2022-07-31T16:41:54.820Z,26.72
2022-07-31T16:44:22.020Z,26.62
2022-07-31T16:46:54.176Z,26.58
2022-07-31T16:49:35.356Z,26.61
2022-07-31T16:52:03.618Z,26.56
2022-07-31T16:54:30.684Z,26.51
2022-07-31T16:56:57.358Z,26.48
2022-07-31T16:59:24.075Z,26.46
2022-07-31T17:01:57.775Z,26.42
2022-07-31T17:04:27.817Z,26.39
2022-07-31T17:06:55.453Z,26.34
2022-07-31T17:09:22.879Z,26.30
2022-07-31T17:11:53.870Z,26.26
2022-07-31T17:14:22.017Z,26.21
2022-07-31T17:16:50.162Z,26.21
2022-07-31T17:19:41.326Z,26.10
2022-07-31T17:22:07.258Z,25.96
2022-07-31T17:24:36.981Z,25.93
2022-07-31T17:27:08.514Z,25.83
2022-07-31T17:29:37.521Z,25.82
2022-07-31T17:32:04.538Z,25.71
2022-07-31T17:34:31.253Z,25.72
2022-07-31T17:36:58.441Z,25.68
2022-07-31T17:39:30.039Z,25.64
2022-07-31T17:41:57.805Z,25.60
2022-07-31T17:44:24.811Z,25.51
2022-07-31T17:46:52.390Z,25.55
2022-07-31T17:49:19.737Z,25.52
2022-07-31T17:51:58.672Z,25.49
2022-07-31T17:54:35.097Z,25.46
2022-07-31T17:57:02.658Z,25.41
2022-07-31T17:59:29.627Z,25.34
2022-07-31T18:02:00.462Z,25.31
2022-07-31T18:04:28.683Z,25.25
2022-07-31T18:06:55.757Z,25.24
2022-07-31T18:09:23.805Z,25.13
2022-07-31T18:11:52.345Z,25.08
2022-07-31T18:14:19.622Z,25.01
2022-07-31T18:16:47.252Z,24.98
2022-07-31T18:19:15.002Z,24.92
2022-07-31T18:21:42.029Z,24.87
2022-07-31T18:24:08.904Z,24.83
2022-07-31T18:26:37.388Z,24.79
2022-07-31T18:29:05.073Z,24.75
2022-07-31T18:31:35.151Z,24.71
2022-07-31T18:34:06.928Z,24.67
2022-07-31T18:36:35.006Z,24.64
2022-07-31T18:39:04.476Z,24.54
2022-07-31T18:41:33.967Z,24.45
2022-07-31T18:44:01.066Z,24.46
2022-07-31T18:46:28.097Z,24.51
2022-07-31T18:48:56.475Z,24.41
2022-07-31T18:51:28.785Z,24.44
2022-07-31T18:53:56.597Z,24.39
2022-07-31T18:56:24.497Z,24.27
2022-07-31T18:58:52.185Z,24.23
2022-07-31T19:01:19.630Z,24.17
2022-07-31T19:03:46.691Z,24.22
2022-07-31T19:06:13.736Z,24.16
2022-07-31T19:08:40.827Z,24.09
2022-07-31T19:11:07.526Z,24.13
2022-07-31T19:13:34.931Z,24.09
2022-07-31T19:16:02.127Z,24.04
2022-07-31T19:18:29.140Z,23.95
2022-07-31T19:21:18.971Z,23.91
2022-07-31T19:23:46.581Z,23.92
2022-07-31T19:26:13.589Z,23.82
2022-07-31T19:28:43.110Z,23.87
2022-07-31T19:31:11.638Z,23.85
2022-07-31T19:33:38.450Z,23.82
2022-07-31T19:36:05.698Z,23.80
2022-07-31T19:38:35.727Z,23.77
2022-07-31T19:41:03.167Z,23.67
2022-07-31T19:43:30.749Z,23.70
2022-07-31T19:46:10.693Z,23.61
2022-07-31T19:48:41.325Z,23.64
2022-07-31T19:51:09.584Z,23.62
2022-07-31T19:53:36.389Z,23.54
2022-07-31T19:56:05.818Z,23.55
2022-07-31T19:58:34.770Z,23.47
2022-07-31T20:01:02.475Z,23.41
2022-07-31T20:03:29.674Z,23.45
2022-07-31T20:05:57.309Z,23.34
2022-07-31T20:08:24.082Z,23.38
2022-07-31T20:10:51.327Z,23.34
2022-07-31T20:13:19.141Z,23.26
2022-07-31T20:15:51.578Z,23.28
2022-07-31T20:18:27.310Z,23.22
2022-07-31T20:21:09.426Z,23.20
2022-07-31T20:23:38.996Z,23.09
2022-07-31T20:26:07.347Z,23.09
2022-07-31T20:28:34.610Z,23.02
2022-07-31T20:31:01.954Z,22.98
2022-07-31T20:33:28.740Z,23.01
2022-07-31T20:35:55.478Z,22.98
2022-07-31T20:38:23.827Z,22.94
2022-07-31T20:40:55.333Z,22.86
2022-07-31T20:43:24.320Z,22.88
2022-07-31T20:45:51.720Z,22.85
2022-07-31T20:48:18.520Z,22.82
2022-07-31T20:50:48.091Z,22.74
2022-07-31T20:53:16.275Z,22.76
2022-07-31T20:55:49.331Z,22.74
2022-07-31T20:58:18.252Z,22.65
2022-07-31T21:00:45.505Z,22.68
2022-07-31T21:03:12.872Z,22.62
2022-07-31T21:05:40.045Z,22.62
2022-07-31T21:08:06.830Z,22.59
2022-07-31T21:10:34.112Z,22.57
2022-07-31T21:13:01.059Z,22.55
2022-07-31T21:15:41.938Z,22.50
2022-07-31T21:18:13.086Z,22.47
2022-07-31T21:20:52.246Z,22.45
2022-07-31T21:23:24.536Z,22.42
2022-07-31T21:25:56.728Z,22.39
2022-07-31T21:28:26.369Z,22.39
2022-07-31T21:30:55.889Z,22.33
2022-07-31T21:33:24.643Z,22.29
2022-07-31T21:35:52.132Z,22.25
2022-07-31T21:38:19.099Z,22.22
2022-07-31T21:40:47.498Z,22.18
2022-07-31T21:43:14.727Z,22.15
2022-07-31T21:45:54.858Z,22.11
2022-07-31T21:48:26.925Z,22.07
2022-07-31T21:50:54.885Z,21.97
2022-07-31T21:53:22.227Z,22.01
2022-07-31T21:55:49.386Z,21.91
2022-07-31T21:58:17.394Z,21.95
2022-07-31T22:00:44.925Z,21.92
2022-07-31T22:03:12.048Z,21.82
2022-07-31T22:05:57.471Z,21.79
2022-07-31T22:08:24.717Z,21.70
2022-07-31T22:10:52.215Z,21.65
2022-07-31T22:13:19.649Z,21.57
2022-07-31T22:15:58.778Z,21.49
2022-07-31T22:18:29.604Z,21.40
2022-07-31T22:20:57.433Z,21.34
2022-07-31T22:23:26.125Z,21.35
2022-07-31T22:25:53.114Z,21.27
2022-07-31T22:28:22.120Z,21.27
2022-07-31T22:30:49.288Z,21.19
2022-07-31T22:33:16.222Z,21.20
2022-07-31T22:35:43.846Z,21.16
2022-07-31T22:38:13.445Z,21.11
2022-07-31T22:40:40.495Z,20.99
2022-07-31T22:44:10.668Z,21.02
2022-07-31T22:46:00.386Z,20.99
2022-07-31T22:48:27.916Z,20.97
2022-07-31T22:50:55.475Z,20.92
2022-07-31T22:53:22.326Z,20.84
2022-07-31T22:55:49.424Z,20.85
2022-07-31T22:58:16.125Z,20.95
2022-07-31T23:00:43.197Z,20.97
2022-07-31T23:03:10.132Z,21.05
2022-07-31T23:06:28.165Z,21.06
2022-07-31T23:08:23.985Z,21.07
2022-07-31T23:10:50.854Z,21.14
2022-07-31T23:13:17.600Z,21.15
2022-07-31T23:15:44.851Z,21.15
2022-07-31T23:18:11.934Z,21.17
2022-07-31T23:20:38.721Z,21.15
2022-07-31T23:23:05.723Z,21.15
2022-07-31T23:25:32.732Z,21.11
2022-07-31T23:27:59.517Z,21.12
2022-07-31T23:30:27.523Z,21.09
2022-07-31T23:32:55.410Z,21.03
2022-07-31T23:35:22.174Z,21.03
2022-07-31T23:37:49.205Z,20.95
2022-07-31T23:40:15.956Z,20.96
2022-07-31T23:42:42.652Z,20.98
2022-07-31T23:45:15.434Z,20.91
2022-07-31T23:47:45.640Z,20.97
2022-07-31T23:50:15.270Z,20.95
2022-07-31T23:52:43.053Z,20.88
2022-07-31T23:55:10.096Z,20.94
2022-07-31T23:57:37.254Z,20.91
